Fehn Calais — V2CI3 — position and weather

sailwx.info

Track history (hours):
 
Tides and Currents Weather Stations Pressure Air Temp Water Temp Dewpoint Dewpoint Depression Visibility Wind Speed Wind Dir Waves Ship Positions

Fehn Calais

Last reported at 2015-Mar-03 18:33 UTC. Time now 2015-Mar-03 18:54 UTC.
Position N 51°54' E 004°28'.

Length 82 m; draft 4.2 m.

Type: Cargo ship. MMSI: 305009000.

Date/timePositionNaut miles runAvg speedWind from/ knotsBaromVisibWave heightAir tempDewpointWater temp
2015-Mar-03 18:33N 51°54' E 004°28'3 2.8
2015-Mar-03 17:34N 51°54' E 004°24'0 0.1
2015-Mar-03 16:31N 51°54' E 004°24'0 0.0
2015-Mar-03 15:31N 51°54' E 004°24'0 0.0
2015-Mar-03 14:28N 51°54' E 004°24'0 0.0
2015-Mar-03 13:31N 51°54' E 004°24'0 0.0
2015-Mar-03 12:31N 51°54' E 004°24'0 0.0
2015-Mar-03 11:31N 51°54' E 004°24'0 0.0
2015-Mar-03 10:31N 51°54' E 004°24'0 0.0
2015-Mar-03 09:31N 51°54' E 004°24'0 0.1
2015-Mar-03 08:33N 51°54' E 004°24'6 6.4
2015-Mar-03 07:33N 51°55' E 004°14'6 6.1
2015-Mar-03 06:33N 51°59' E 004°05'6 6.1
2015-Mar-03 05:33N 52°00' E 003°56'7 6.7
2015-Mar-03 04:30N 52°00' E 003°44'6 6.0
2015-Mar-03 03:33N 51°57' E 003°37'8 7.8
2015-Mar-03 02:29N 51°55' E 003°24'19 6.5
2015-Mar-02 23:30N 51°35' E 003°24'6 6.8
2015-Mar-02 22:33N 51°30' E 003°29'6 6.1
2015-Mar-02 21:33N 51°26' E 003°37'3 2.8
2015-Mar-02 20:29N 51°27' E 003°42'0 0.0
2015-Mar-02 19:29N 51°27' E 003°42'0 0.0
2015-Mar-02 18:26N 51°27' E 003°42'0 0.0
2015-Mar-02 17:32N 51°27' E 003°42'0 0.0
2015-Mar-02 16:32N 51°27' E 003°42'0 0.0
2015-Mar-02 15:32N 51°27' E 003°42'0 0.0
2015-Mar-02 14:32N 51°27' E 003°42'0 0.0
2015-Mar-02 13:29N 51°27' E 003°42'0 0.0
2015-Mar-02 12:32N 51°27' E 003°42'0 0.0
2015-Mar-02 11:32N 51°27' E 003°42'3 3.3
2015-Mar-02 10:34N 51°26' E 003°37'1 1.4
2015-Mar-02 09:31N 51°25' E 003°36'0 0.0
2015-Mar-02 08:32N 51°25' E 003°36'6 6.6
2015-Mar-02 07:33N 51°30' E 003°29'9 8.6
2015-Mar-02 06:33N 51°37' E 003°21'10 6.9
2015-Mar-02 05:04N 51°46' E 003°13'3 5.6
2015-Mar-02 04:32N 51°49' E 003°15'6 4.8
2015-Mar-02 03:21N 51°54' E 003°17'3 3.9
2015-Mar-02 02:33N 51°57' E 003°19'146 3.3
2015-Feb-28 06:31N 54°13' E 004°52'  
2015-Feb-26 01:33N 58°51' E 005°17'6 6.4
2015-Feb-26 00:33N 58°57' E 005°18'7 6.7
2015-Feb-25 23:33N 59°04' E 005°19'7 7.3
2015-Feb-25 22:33N 59°09' E 005°29'8 8.1
2015-Feb-25 21:33N 59°14' E 005°41'9 9.1
2015-Feb-25 20:33N 59°20' E 005°55'11 8.3
2015-Feb-25 19:16N 59°27' E 006°11'4 0.1
2015-Feb-23 17:32N 59°30' E 006°15'9 9.0
2015-Feb-23 16:33N 59°23' E 006°03'1010.0
2015-Feb-23 15:33N 59°14' E 005°54'1010.2
2015-Feb-23 14:33N 59°04' E 005°51'7 7.2
2015-Feb-23 13:33N 58°60' E 005°40'0 0.0
2015-Feb-23 12:32N 58°60' E 005°40'0 0.0
2015-Feb-23 11:32N 58°60' E 005°40'0 0.0
2015-Feb-23 10:32N 58°60' E 005°40'0 0.0
2015-Feb-23 09:32N 58°60' E 005°40'0 0.0
2015-Feb-23 08:32N 58°60' E 005°40'0 0.0
2015-Feb-23 07:32N 58°60' E 005°40'0 0.0
2015-Feb-23 06:32N 58°60' E 005°40'0 0.0
2015-Feb-23 05:29N 58°60' E 005°40'0 0.0
2015-Feb-23 04:32N 58°60' E 005°40'0 0.0
2015-Feb-23 03:32N 58°60' E 005°40'0 0.0
2015-Feb-23 02:32N 58°60' E 005°40'0 0.0
2015-Feb-23 01:32N 58°60' E 005°40'0 0.0
2015-Feb-23 00:32N 58°60' E 005°40'0 0.0
2015-Feb-22 23:32N 58°60' E 005°40'0 0.0
2015-Feb-22 22:32N 58°60' E 005°40'0 0.0
2015-Feb-22 21:32N 58°60' E 005°40'0 0.0
2015-Feb-22 20:32N 58°60' E 005°40'0 0.0
2015-Feb-22 19:32N 58°60' E 005°40'0 0.0
2015-Feb-22 18:32N 58°60' E 005°40'0 0.0
2015-Feb-22 17:32N 58°60' E 005°40'0 0.0
2015-Feb-22 16:32N 58°60' E 005°40'0 0.0
2015-Feb-22 15:32N 58°60' E 005°40'0 0.0
2015-Feb-22 14:32N 58°60' E 005°40'0 0.0
2015-Feb-22 13:32N 58°60' E 005°40'0 0.0
2015-Feb-22 12:32N 58°60' E 005°40'0 0.0
2015-Feb-22 11:32N 58°60' E 005°40'2 2.1
2015-Feb-22 10:33N 59°02' E 005°37'7 7.0
2015-Feb-22 09:33N 58°55' E 005°33'8 8.1
2015-Feb-22 08:33N 58°49' E 005°22'9 9.0
2015-Feb-22 07:31N 58°45' E 005°06'  
Track history (hours):
 
Tides and Currents Weather Stations Pressure Air Temp Water Temp Dewpoint Dewpoint Depression Visibility Wind Speed Wind Dir Waves Ship Positions

Fehn Calais

Last reported at 2015-Mar-03 18:33 UTC. Time now 2015-Mar-03 18:54 UTC.
Position N 51°54' E 004°28'.

Length 82 m; draft 4.2 m.

Type: Cargo ship. MMSI: 305009000.

Date/timePositionNaut miles runAvg speedWind from/ knotsBaromVisibWave heightAir tempDewpointWater temp
2015-Mar-03 18:33N 51°54' E 004°28'3 2.8
2015-Mar-03 17:34N 51°54' E 004°24'0 0.1
2015-Mar-03 16:31N 51°54' E 004°24'0 0.0
2015-Mar-03 15:31N 51°54' E 004°24'0 0.0
2015-Mar-03 14:28N 51°54' E 004°24'0 0.0
2015-Mar-03 13:31N 51°54' E 004°24'0 0.0
2015-Mar-03 12:31N 51°54' E 004°24'0 0.0
2015-Mar-03 11:31N 51°54' E 004°24'0 0.0
2015-Mar-03 10:31N 51°54' E 004°24'0 0.0
2015-Mar-03 09:31N 51°54' E 004°24'0 0.1
2015-Mar-03 08:33N 51°54' E 004°24'6 6.4
2015-Mar-03 07:33N 51°55' E 004°14'6 6.1
2015-Mar-03 06:33N 51°59' E 004°05'6 6.1
2015-Mar-03 05:33N 52°00' E 003°56'7 6.7
2015-Mar-03 04:30N 52°00' E 003°44'6 6.0
2015-Mar-03 03:33N 51°57' E 003°37'8 7.8
2015-Mar-03 02:29N 51°55' E 003°24'19 6.5
2015-Mar-02 23:30N 51°35' E 003°24'6 6.8
2015-Mar-02 22:33N 51°30' E 003°29'6 6.1
2015-Mar-02 21:33N 51°26' E 003°37'3 2.8
2015-Mar-02 20:29N 51°27' E 003°42'0 0.0
2015-Mar-02 19:29N 51°27' E 003°42'0 0.0
2015-Mar-02 18:26N 51°27' E 003°42'0 0.0
2015-Mar-02 17:32N 51°27' E 003°42'0 0.0
2015-Mar-02 16:32N 51°27' E 003°42'0 0.0
2015-Mar-02 15:32N 51°27' E 003°42'0 0.0
2015-Mar-02 14:32N 51°27' E 003°42'0 0.0
2015-Mar-02 13:29N 51°27' E 003°42'0 0.0
2015-Mar-02 12:32N 51°27' E 003°42'0 0.0
2015-Mar-02 11:32N 51°27' E 003°42'3 3.3
2015-Mar-02 10:34N 51°26' E 003°37'1 1.4
2015-Mar-02 09:31N 51°25' E 003°36'0 0.0
2015-Mar-02 08:32N 51°25' E 003°36'6 6.6
2015-Mar-02 07:33N 51°30' E 003°29'9 8.6
2015-Mar-02 06:33N 51°37' E 003°21'10 6.9
2015-Mar-02 05:04N 51°46' E 003°13'3 5.6
2015-Mar-02 04:32N 51°49' E 003°15'6 4.8
2015-Mar-02 03:21N 51°54' E 003°17'3 3.9
2015-Mar-02 02:33N 51°57' E 003°19'146 3.3
2015-Feb-28 06:31N 54°13' E 004°52'  
2015-Feb-26 01:33N 58°51' E 005°17'6 6.4
2015-Feb-26 00:33N 58°57' E 005°18'7 6.7
2015-Feb-25 23:33N 59°04' E 005°19'7 7.3
2015-Feb-25 22:33N 59°09' E 005°29'8 8.1
2015-Feb-25 21:33N 59°14' E 005°41'9 9.1
2015-Feb-25 20:33N 59°20' E 005°55'11 8.3
2015-Feb-25 19:16N 59°27' E 006°11'4 0.1
2015-Feb-23 17:32N 59°30' E 006°15'9 9.0
2015-Feb-23 16:33N 59°23' E 006°03'1010.0
2015-Feb-23 15:33N 59°14' E 005°54'1010.2
2015-Feb-23 14:33N 59°04' E 005°51'7 7.2
2015-Feb-23 13:33N 58°60' E 005°40'0 0.0
2015-Feb-23 12:32N 58°60' E 005°40'0 0.0
2015-Feb-23 11:32N 58°60' E 005°40'0 0.0
2015-Feb-23 10:32N 58°60' E 005°40'0 0.0
2015-Feb-23 09:32N 58°60' E 005°40'0 0.0
2015-Feb-23 08:32N 58°60' E 005°40'0 0.0
2015-Feb-23 07:32N 58°60' E 005°40'0 0.0
2015-Feb-23 06:32N 58°60' E 005°40'0 0.0
2015-Feb-23 05:29N 58°60' E 005°40'0 0.0
2015-Feb-23 04:32N 58°60' E 005°40'0 0.0
2015-Feb-23 03:32N 58°60' E 005°40'0 0.0
2015-Feb-23 02:32N 58°60' E 005°40'0 0.0
2015-Feb-23 01:32N 58°60' E 005°40'0 0.0
2015-Feb-23 00:32N 58°60' E 005°40'0 0.0
2015-Feb-22 23:32N 58°60' E 005°40'0 0.0
2015-Feb-22 22:32N 58°60' E 005°40'0 0.0
2015-Feb-22 21:32N 58°60' E 005°40'0 0.0
2015-Feb-22 20:32N 58°60' E 005°40'0 0.0
2015-Feb-22 19:32N 58°60' E 005°40'0 0.0
2015-Feb-22 18:32N 58°60' E 005°40'0 0.0
2015-Feb-22 17:32N 58°60' E 005°40'0 0.0
2015-Feb-22 16:32N 58°60' E 005°40'0 0.0
2015-Feb-22 15:32N 58°60' E 005°40'0 0.0
2015-Feb-22 14:32N 58°60' E 005°40'0 0.0
2015-Feb-22 13:32N 58°60' E 005°40'0 0.0
2015-Feb-22 12:32N 58°60' E 005°40'0 0.0
2015-Feb-22 11:32N 58°60' E 005°40'2 2.1
2015-Feb-22 10:33N 59°02' E 005°37'7 7.0
2015-Feb-22 09:33N 58°55' E 005°33'8 8.1
2015-Feb-22 08:33N 58°49' E 005°22'9 9.0
2015-Feb-22 07:31N 58°45' E 005°06'  

Dump ship's entire track history